WIII/CGK METAR and TAF weather

Enter ICAO airport designator
Station Type Date Time Source
WIII METAR 2019/10/23 13:00 UTC NOAA

WIII 231300Z VRB03KT 8000 FEW020 29/23 Q1009 NOSIG


Station Type Date Time Source
WIII Decoded METAR 2019/10/23 13:00 UTC NOAA

Jakarta / Soekarno-Hatta, Indonesia (WIII) 06-07S 106-39E 8M
Oct 23, 2019 - 09:00 AM EDT / 2019.10.23 1300 UTC
Wind: Variable at 3 MPH (3 KT):0
Visibility: 4 mile(s):0
Sky conditions: mostly clear
Temperature: 84 F (29 C)
Dew Point: 73 F (23 C)
Relative Humidity: 70%
Pressure (altimeter): 29.80 in. Hg (1009 hPa)
ob: WIII 231300Z VRB03KT 8000 FEW020 29/23 Q1009 NOSIG
cycle: 13

Station Type Date Time Source
WIII TAF 2019/10/23 12:39 UTC NOAA

TAF WIII 231100Z 2312/2418 04010KT 8000 SCT020

Example: see airport list